createdAt,value
2019-01-17T00:00:06.548Z,4.30
2019-01-17T00:05:28.129Z,4.20
2019-01-17T00:10:48.305Z,4.20
2019-01-17T00:16:06.259Z,4.20
2019-01-17T00:21:27.670Z,4.20
2019-01-17T00:26:45.666Z,4.20
2019-01-17T00:31:57.480Z,4.20
2019-01-17T00:37:19.125Z,4.20
2019-01-17T00:42:40.909Z,4.20
2019-01-17T00:48:08.020Z,4.20
2019-01-17T00:53:30.829Z,4.10
2019-01-17T00:58:45.981Z,4.10
2019-01-17T01:04:06.095Z,4.10
2019-01-17T01:09:42.268Z,4.10
2019-01-17T01:14:57.566Z,4.10
2019-01-17T01:20:23.145Z,4.10
2019-01-17T01:25:45.970Z,4.20
2019-01-17T01:31:00.337Z,4.20
2019-01-17T01:36:41.579Z,4.20
2019-01-17T01:41:56.217Z,4.30
2019-01-17T01:47:08.740Z,4.30
2019-01-17T01:52:39.913Z,4.30
2019-01-17T01:57:43.583Z,4.40
2019-01-17T02:02:47.494Z,4.40
2019-01-17T02:07:51.142Z,4.40
2019-01-17T02:12:54.799Z,4.40
2019-01-17T02:17:58.447Z,4.50
2019-01-17T02:23:02.094Z,4.50
2019-01-17T02:28:05.746Z,4.50
2019-01-17T02:33:09.465Z,4.50
2019-01-17T02:38:13.111Z,4.50
2019-01-17T02:43:16.820Z,4.50
2019-01-17T02:48:20.785Z,4.50
2019-01-17T02:53:24.546Z,4.50
2019-01-17T02:58:28.235Z,4.50
2019-01-17T03:03:31.917Z,4.60
2019-01-17T03:08:35.888Z,4.60
2019-01-17T03:13:39.573Z,4.50
2019-01-17T03:18:43.497Z,4.60
2019-01-17T03:23:47.246Z,4.60
2019-01-17T03:28:51.139Z,4.60
2019-01-17T03:33:54.882Z,4.60
2019-01-17T03:38:58.570Z,4.60
2019-01-17T03:44:02.291Z,4.70
2019-01-17T03:49:05.975Z,4.70
2019-01-17T03:54:09.662Z,4.70
2019-01-17T03:59:13.352Z,4.70
2019-01-17T04:04:17.346Z,4.70
2019-01-17T04:09:21.015Z,4.70
2019-01-17T04:14:24.686Z,4.70
2019-01-17T04:19:28.362Z,4.70
2019-01-17T04:24:32.045Z,4.70
2019-01-17T04:29:35.718Z,4.80
2019-01-17T04:34:39.443Z,4.80
2019-01-17T04:39:43.136Z,4.80
2019-01-17T04:44:46.878Z,4.80
2019-01-17T04:49:50.926Z,4.80
2019-01-17T04:54:54.665Z,4.80
2019-01-17T04:59:58.367Z,4.90
2019-01-17T05:05:02.143Z,4.90
2019-01-17T05:10:06.278Z,5.00
2019-01-17T05:15:10.379Z,5.00
2019-01-17T05:20:15.593Z,5.00
2019-01-17T05:25:19.334Z,5.10
2019-01-17T05:30:23.186Z,5.20
2019-01-17T05:35:26.865Z,5.20
2019-01-17T05:40:30.570Z,5.20
2019-01-17T05:45:34.565Z,5.30
2019-01-17T05:50:38.298Z,5.30
2019-01-17T05:55:42.012Z,5.30
2019-01-17T06:00:45.783Z,5.30
2019-01-17T06:05:50.188Z,5.40
2019-01-17T06:10:54.164Z,5.40
2019-01-17T06:15:58.361Z,5.40
2019-01-17T06:21:02.327Z,5.40
2019-01-17T06:26:06.236Z,5.40
2019-01-17T06:31:09.965Z,5.40
2019-01-17T06:36:13.647Z,5.40
2019-01-17T06:41:17.413Z,5.40
2019-01-17T06:46:21.169Z,5.40
2019-01-17T06:51:24.846Z,5.40
2019-01-17T06:56:28.814Z,5.40
2019-01-17T07:01:32.604Z,5.40
2019-01-17T07:06:36.325Z,5.40
2019-01-17T07:11:40.006Z,5.40
2019-01-17T07:16:43.690Z,5.40
2019-01-17T07:21:47.642Z,5.50
2019-01-17T07:26:51.462Z,5.50
2019-01-17T07:31:55.396Z,5.50
2019-01-17T07:36:59.216Z,5.50
2019-01-17T07:42:02.923Z,5.50
2019-01-17T07:47:06.609Z,5.60
2019-01-17T07:52:10.370Z,5.60
2019-01-17T07:57:14.070Z,5.60
2019-01-17T08:02:18.019Z,5.60
2019-01-17T08:07:22.015Z,5.60
2019-01-17T08:12:25.682Z,5.70
2019-01-17T08:17:29.392Z,5.70
2019-01-17T08:22:33.152Z,5.70
2019-01-17T08:27:37.203Z,5.70
2019-01-17T08:32:40.946Z,5.70
2019-01-17T08:37:44.638Z,5.70
2019-01-17T08:42:48.782Z,5.70
2019-01-17T08:47:52.485Z,5.70
2019-01-17T08:52:56.173Z,5.70
2019-01-17T08:57:59.912Z,5.70
2019-01-17T09:03:03.626Z,5.70
2019-01-17T09:08:07.294Z,5.70
2019-01-17T09:13:11.313Z,5.80
2019-01-17T09:18:15.243Z,5.80
2019-01-17T09:23:19.016Z,5.80
2019-01-17T09:28:22.716Z,5.80
2019-01-17T09:33:26.404Z,5.90
2019-01-17T09:38:30.281Z,5.90
2019-01-17T09:43:34.081Z,6.00
2019-01-17T09:48:38.090Z,6.00
2019-01-17T09:53:41.859Z,6.00
2019-01-17T09:58:45.530Z,6.10
2019-01-17T10:03:49.734Z,6.10
2019-01-17T10:08:53.422Z,6.20
2019-01-17T10:13:57.399Z,6.20
2019-01-17T10:19:41.782Z,6.20
2019-01-17T10:24:58.686Z,6.20
2019-01-17T10:30:30.098Z,6.20
2019-01-17T10:36:11.769Z,6.20
2019-01-17T10:41:25.240Z,6.20
2019-01-17T10:47:01.618Z,6.10
2019-01-17T10:52:36.980Z,6.10
2019-01-17T10:57:54.430Z,6.10
2019-01-17T11:03:35.445Z,6.10
2019-01-17T11:09:15.794Z,6.10
2019-01-17T11:14:33.663Z,6.10
2019-01-17T11:20:02.171Z,6.10
2019-01-17T11:25:45.751Z,6.10
2019-01-17T11:31:32.686Z,6.10
2019-01-17T11:37:14.490Z,6.10
2019-01-17T11:43:03.480Z,6.10
2019-01-17T11:48:45.428Z,6.10
2019-01-17T11:54:14.938Z,6.20
2019-01-17T12:00:01.725Z,6.20
2019-01-17T12:05:05.842Z,6.20
2019-01-17T12:10:09.689Z,6.30
2019-01-17T12:15:13.723Z,6.30
2019-01-17T12:20:17.387Z,6.40
2019-01-17T12:25:21.062Z,6.40
2019-01-17T12:30:24.761Z,6.40
2019-01-17T12:35:28.426Z,6.40
2019-01-17T12:40:32.433Z,6.40
2019-01-17T12:45:36.107Z,6.40
2019-01-17T12:50:39.783Z,6.40
2019-01-17T12:55:43.591Z,6.40
2019-01-17T13:00:47.251Z,6.40
2019-01-17T13:05:51.012Z,6.40
2019-01-17T13:10:55.275Z,6.50
2019-01-17T13:15:58.946Z,6.50
2019-01-17T13:21:02.643Z,6.50
2019-01-17T13:26:06.472Z,6.50
2019-01-17T13:31:10.202Z,6.40
2019-01-17T13:36:14.109Z,6.40
2019-01-17T13:41:17.778Z,6.40
2019-01-17T13:46:21.450Z,6.50
2019-01-17T13:51:25.209Z,6.50
2019-01-17T13:56:28.890Z,6.50
2019-01-17T14:01:32.631Z,6.50
2019-01-17T14:06:36.632Z,6.50
2019-01-17T14:11:40.294Z,6.50
2019-01-17T14:16:44.271Z,6.50
2019-01-17T14:21:48.324Z,6.50
2019-01-17T14:26:51.990Z,6.40
2019-01-17T14:31:56.285Z,6.30
2019-01-17T14:36:59.970Z,6.30
2019-01-17T14:42:03.966Z,6.20
2019-01-17T14:47:07.756Z,6.10
2019-01-17T14:52:11.519Z,6.00
2019-01-17T14:57:20.636Z,5.90
2019-01-17T15:02:20.671Z,5.80
2019-01-17T15:07:24.357Z,5.80
2019-01-17T15:12:28.384Z,5.70
2019-01-17T15:17:32.085Z,5.60
2019-01-17T15:22:36.026Z,5.60
2019-01-17T15:27:39.698Z,5.50
2019-01-17T15:32:43.435Z,5.50
2019-01-17T15:37:47.115Z,5.40
2019-01-17T15:42:50.863Z,5.40
2019-01-17T15:47:54.547Z,5.40
2019-01-17T15:52:58.571Z,5.30
2019-01-17T15:58:02.592Z,5.30
2019-01-17T16:03:06.262Z,5.20
2019-01-17T16:08:10.264Z,5.20
2019-01-17T16:13:13.999Z,5.20
2019-01-17T16:18:18.044Z,5.20
2019-01-17T16:23:22.538Z,5.20
2019-01-17T16:28:26.210Z,5.30
2019-01-17T16:33:29.950Z,5.40
2019-01-17T16:38:33.633Z,5.50
2019-01-17T16:43:37.320Z,5.50
2019-01-17T16:48:40.993Z,5.50
2019-01-17T16:53:44.691Z,5.60
2019-01-17T16:58:48.409Z,5.60
2019-01-17T17:03:52.385Z,5.60
2019-01-17T17:08:56.149Z,5.60
2019-01-17T17:13:59.890Z,5.60
2019-01-17T17:19:03.798Z,5.60
2019-01-17T17:25:06.027Z,5.60
2019-01-17T17:30:18.038Z,5.80
2019-01-17T17:35:21.743Z,5.80
2019-01-17T17:40:30.495Z,5.70
2019-01-17T17:45:34.165Z,5.70
2019-01-17T17:50:37.835Z,5.60
2019-01-17T17:55:41.569Z,5.60
2019-01-17T18:00:52.662Z,5.50
2019-01-17T18:05:56.349Z,5.40
2019-01-17T18:11:00.359Z,5.40
2019-01-17T18:16:04.301Z,5.30
2019-01-17T18:21:07.976Z,5.30
2019-01-17T18:26:11.645Z,5.20
2019-01-17T18:31:15.433Z,5.20
2019-01-17T18:36:19.687Z,5.20
2019-01-17T18:41:24.236Z,5.20
2019-01-17T18:46:29.532Z,5.10
2019-01-17T18:51:33.875Z,5.10
2019-01-17T18:56:39.571Z,5.00
2019-01-17T19:01:43.297Z,4.90
2019-01-17T19:06:47.791Z,4.90
2019-01-17T19:11:51.767Z,4.80
2019-01-17T19:16:56.478Z,4.70
2019-01-17T19:22:00.852Z,4.70
2019-01-17T19:27:05.317Z,4.70
2019-01-17T19:32:09.260Z,4.70
2019-01-17T19:37:13.162Z,4.60
2019-01-17T19:42:17.350Z,4.70
2019-01-17T19:47:21.624Z,4.60
2019-01-17T19:52:26.111Z,4.60
2019-01-17T19:57:29.907Z,4.60
2019-01-17T20:02:33.914Z,4.60
2019-01-17T20:07:38.144Z,4.60
2019-01-17T20:12:42.280Z,4.60
2019-01-17T20:17:47.178Z,4.60
2019-01-17T20:22:51.142Z,4.50
2019-01-17T20:27:55.174Z,4.50
2019-01-17T20:33:01.147Z,4.50
2019-01-17T20:38:07.010Z,4.50
2019-01-17T20:43:10.839Z,4.50
2019-01-17T20:48:15.792Z,4.50
2019-01-17T20:53:19.550Z,4.50
2019-01-17T20:58:23.282Z,4.40
2019-01-17T21:03:27.047Z,4.40
2019-01-17T21:08:30.794Z,4.40
2019-01-17T21:13:34.775Z,4.40
2019-01-17T21:18:38.801Z,4.40
2019-01-17T21:23:42.775Z,4.30
2019-01-17T21:28:49.136Z,4.30
2019-01-17T21:33:52.221Z,4.30
2019-01-17T21:38:55.920Z,4.30
2019-01-17T21:43:59.621Z,4.30
2019-01-17T21:49:03.337Z,4.20
2019-01-17T21:54:07.562Z,4.20
2019-01-17T21:59:11.324Z,4.20
2019-01-17T22:04:14.999Z,4.20
2019-01-17T22:09:18.670Z,4.10
2019-01-17T22:14:22.519Z,4.10
2019-01-17T22:19:26.210Z,4.10
2019-01-17T22:24:29.903Z,4.10
2019-01-17T22:29:33.602Z,4.00
2019-01-17T22:34:37.318Z,4.00
2019-01-17T22:39:41.029Z,4.00
2019-01-17T22:44:44.790Z,4.00
2019-01-17T22:49:49.011Z,3.90
2019-01-17T22:54:52.710Z,3.80
2019-01-17T22:59:56.390Z,3.80
2019-01-17T23:05:00.161Z,3.70
2019-01-17T23:10:04.782Z,3.60
2019-01-17T23:15:09.052Z,3.60
2019-01-17T23:20:13.083Z,3.50
2019-01-17T23:25:16.772Z,3.40
2019-01-17T23:30:20.618Z,3.30
2019-01-17T23:35:24.311Z,3.30
2019-01-17T23:40:28.277Z,3.20
2019-01-17T23:45:31.983Z,3.10
2019-01-17T23:50:36.031Z,3.10
2019-01-17T23:55:39.814Z,3.10
